Here is the Quick Look data you requested

The Data originates at the National Weather Service, and is made available here by the UAlbany Department of Atmospheric and Environmental Sciences

Surface Observations

K40B 231016Z AUTO 00000KT M12/M13 A2984 RMK AO1 SLP134 T11191130 52007
K8B0 230955Z AUTO 00000KT 10SM CLR M07/M09 A2984 RMK AO2=
KAUG 230953Z AUTO 30003KT 10SM CLR M02/M08 A2988 RMK AO2 SLP122 T10221078=
KBGR 230953Z 30005KT 10SM FEW070 FEW250 M03/M07 A2984 RMK AO2 SLP108 T10331072=
KBHB 230956Z AUTO 32005KT 10SM CLR M02/M06 A2983 RMK AO2 SLP105 T10221061
KCAR 230954Z AUTO 36007KT 10SM CLR M04/M08 A2979 RMK AO2 SLP098 T10391083=
KFVE 230953Z AUTO 35013G19KT 10SM CLR M03/M08 A2979 RMK AO2 SLP098 T10331083=
KGNR 230956Z AUTO 32010KT M08/M09 A2979 RMK AO1 SLP108 T10781089=
KHUL 230953Z AUTO 35010G18KT 10SM OVC031 M02/M07 A2978 RMK AO2 SLP091 T10221067=
KIWI 230953Z AUTO 00000KT 10SM CLR M04/M06 A2989 RMK AO2 SLP124 T10441061=
KIZG 230954Z AUTO 33003KT 10SM CLR M05/M07 A2989 RMK AO2 SLP126 T10501067=
KLEW 230956Z AUTO 35004KT 10SM CLR M02/M07 A2988 RMK AO2 SLP135 T10171072
KMLT 230953Z AUTO 28004KT 10SM BKN070 M04/M08 A2983 RMK AO2 SLP111 T10391083=
KPQI 230956Z AUTO 33011KT 10SM SCT037 M03/M07 A2981 RMK AO2 SLP138 T10331072
KPWM 230951Z 00000KT 10SM FEW250 00/M07 A2989 RMK AO2 SLP121 T00001072=
KRKD 230956Z AUTO 31007KT 10SM CLR M02/M07 A2986 RMK AO2 SLP112 T10171067
KSFM 230956Z AUTO 29003KT 10SM M05/M08 A2988 RMK AO2 SLP126 T10501083 FZRANO $=
KWVL 230956Z AUTO 34005KT 10SM CLR M03/M07 A2982 RMK AO2 SLP130 T10281072